PWSweather.com
Personal Weather Stations
Station Observations
SEVNO44
Sevno, PrimskovoSI 1276

SevnoPrimskovoSI 1276

Lat: 45.9796285, Lon: 14.924044999999978

Elevation: 1706.0368

Station Type: WS-2307

www.primskovo.eu/vreme

High Low Average
Temperature 76.3°F24.6°C 57.6°F14.2°C 66.2°F19.0°C
Dew Point 63.7°F17.6°C 52.8°F11.6°C 58.3°F14.6°C
Winds 6.3 mph 10.1 kmh Calm Calm 1.0 mph E1.6 kmh E
Wind Gusts 7.2 mph11.6 kmh -- 2.0 mph3.2 kmh
Humidity 87% 63% 76%
Pressure 30.36 in1028.1 mb 30.16 in1021.3 mb -
Precipitation 0.00 in0.0 mm - -
Hour Temp Dew Point Humidity Winds Wind Gusts Pressure Precip Precip Rate Daily Precip Total
12:00 AM 61.3°F16.3°C 56.1°F13.4°C 83% Calm Calm 0.9 mph1.4 kmh 30.36 in1028.1 mb 0.00 in0.0 mm 0.00 in0.0 mm 0.00 in0.0 mm
12:05 AM 61.3°F16.3°C 56.1°F13.4°C 83% 0.2 mph NE0.3 kmh NE 0.9 mph1.4 kmh 30.36 in1028.1 mb 0.00 in0.0 mm 0.00 in0.0 mm 0.00 in0.0 mm
12:10 AM 61.3°F16.3°C 56.1°F13.4°C 83% 0.5 mph NE0.8 kmh NE 1.8 mph2.9 kmh 30.36 in1028.1 mb 0.00 in0.0 mm 0.00 in0.0 mm 0.00 in0.0 mm
12:15 AM 61.3°F16.3°C 56.1°F13.4°C 83% 0.4 mph NE0.6 kmh NE 1.8 mph2.9 kmh 30.36 in1028.1 mb 0.00 in0.0 mm 0.00 in0.0 mm 0.00 in0.0 mm
12:20 AM 61.3°F16.3°C 56.1°F13.4°C 83% Calm Calm 1.8 mph2.9 kmh 30.36 in1028.1 mb 0.00 in0.0 mm 0.00 in0.0 mm 0.00 in0.0 mm
12:25 AM 61.3°F16.3°C 56.1°F13.4°C 83% Calm Calm -- 30.36 in1028.1 mb 0.00 in0.0 mm 0.00 in0.0 mm 0.00 in0.0 mm
12:30 AM 61.2°F16.2°C 56.0°F13.3°C 83% Calm Calm 0.7 mph1.1 kmh 30.36 in1028.1 mb 0.00 in0.0 mm 0.00 in0.0 mm 0.00 in0.0 mm
12:35 AM 61.2°F16.2°C 56.0°F13.3°C 83% 0.1 mph NNE0.2 kmh NNE 0.7 mph1.1 kmh 30.36 in1028.1 mb 0.00 in0.0 mm 0.00 in0.0 mm 0.00 in0.0 mm
12:37 AM 61.2°F16.2°C 56.0°F13.3°C 83% Calm Calm -- 30.36 in1028.1 mb 0.00 in0.0 mm 0.00 in0.0 mm 0.00 in0.0 mm
12:40 AM 61.2°F16.2°C 56.0°F13.3°C 83% 0.1 mph NNE0.2 kmh NNE 0.7 mph1.1 kmh 30.36 in1028.1 mb 0.00 in0.0 mm 0.00 in0.0 mm 0.00 in0.0 mm
12:45 AM 61.2°F16.2°C 56.0°F13.3°C 83% Calm Calm -- 30.36 in1028.1 mb 0.00 in0.0 mm 0.00 in0.0 mm 0.00 in0.0 mm
12:50 AM 61.2°F16.2°C 55.6°F13.1°C 82% 0.2 mph SE0.3 kmh SE 1.6 mph2.6 kmh 30.36 in1028.1 mb 0.00 in0.0 mm 0.00 in0.0 mm 0.00 in0.0 mm
12:55 AM 61.2°F16.2°C 56.0°F13.3°C 83% 0.3 mph SE0.5 kmh SE 1.6 mph2.6 kmh 30.36 in1028.1 mb 0.00 in0.0 mm 0.00 in0.0 mm 0.00 in0.0 mm
01:00 AM 61.2°F16.2°C 56.0°F13.3°C 83% 0.1 mph SE0.2 kmh SE 1.6 mph2.6 kmh 30.36 in1028.1 mb 0.00 in0.0 mm 0.00 in0.0 mm 0.00 in0.0 mm
01:05 AM 61.2°F16.2°C 56.0°F13.3°C 83% Calm Calm -- 30.35 in1027.8 mb 0.00 in0.0 mm 0.00 in0.0 mm 0.00 in0.0 mm
01:10 AM 61.0°F16.1°C 55.8°F13.2°C 83% Calm Calm -- 30.36 in1028.1 mb 0.00 in0.0 mm 0.00 in0.0 mm 0.00 in0.0 mm
01:15 AM 61.0°F16.1°C 55.8°F13.2°C 83% Calm Calm -- 30.36 in1028.1 mb 0.00 in0.0 mm 0.00 in0.0 mm 0.00 in0.0 mm
01:20 AM 61.0°F16.1°C 55.8°F13.2°C 83% 0.5 mph NW0.8 kmh NW 1.3 mph2.1 kmh 30.36 in1028.1 mb 0.00 in0.0 mm 0.00 in0.0 mm 0.00 in0.0 mm
01:25 AM 61.0°F16.1°C 55.8°F13.2°C 83% 1.1 mph NW1.8 kmh NW 1.3 mph2.1 kmh 30.36 in1028.1 mb 0.00 in0.0 mm 0.00 in0.0 mm 0.00 in0.0 mm
01:30 AM 61.0°F16.1°C 55.8°F13.2°C 83% 0.7 mph NW1.1 kmh NW 1.3 mph2.1 kmh 30.36 in1028.1 mb 0.00 in0.0 mm 0.00 in0.0 mm 0.00 in0.0 mm
01:35 AM 61.0°F16.1°C 55.8°F13.2°C 83% Calm Calm 1.3 mph2.1 kmh 30.36 in1028.1 mb 0.00 in0.0 mm 0.00 in0.0 mm 0.00 in0.0 mm
01:37 AM 61.0°F16.1°C 55.8°F13.2°C 83% Calm Calm -- 30.36 in1028.1 mb 0.00 in0.0 mm 0.00 in0.0 mm 0.00 in0.0 mm
01:40 AM 61.0°F16.1°C 55.8°F13.2°C 83% Calm Calm -- 30.36 in1028.1 mb 0.00 in0.0 mm 0.00 in0.0 mm 0.00 in0.0 mm
01:45 AM 60.6°F15.9°C 55.4°F13.0°C 83% Calm Calm -- 30.36 in1028.1 mb 0.00 in0.0 mm 0.00 in0.0 mm 0.00 in0.0 mm
01:50 AM 60.6°F15.9°C 55.4°F13.0°C 83% Calm Calm -- 30.36 in1028.1 mb 0.00 in0.0 mm 0.00 in0.0 mm 0.00 in0.0 mm
01:55 AM 60.6°F15.9°C 55.4°F13.0°C 83% 0.5 mph ENE0.8 kmh ENE 2.2 mph3.5 kmh 30.36 in1028.1 mb 0.00 in0.0 mm 0.00 in0.0 mm 0.00 in0.0 mm
02:00 AM 60.6°F15.9°C 55.8°F13.2°C 84% 0.5 mph ENE0.8 kmh ENE 2.2 mph3.5 kmh 30.35 in1027.8 mb 0.00 in0.0 mm 0.00 in0.0 mm 0.00 in0.0 mm
02:05 AM 60.6°F15.9°C 55.8°F13.2°C 84% 0.3 mph 0.5 kmh -- 30.35 in1027.8 mb 0.00 in0.0 mm 0.00 in0.0 mm 0.00 in0.0 mm
02:10 AM 60.6°F15.9°C 55.8°F13.2°C 84% Calm Calm -- 30.35 in1027.8 mb 0.00 in0.0 mm 0.00 in0.0 mm 0.00 in0.0 mm
02:15 AM 60.6°F15.9°C 55.8°F13.2°C 84% 0.5 mph ENE0.8 kmh ENE 2.2 mph3.5 kmh 30.35 in1027.8 mb 0.00 in0.0 mm 0.00 in0.0 mm 0.00 in0.0 mm
02:20 AM 60.6°F15.9°C 55.8°F13.2°C 84% 0.8 mph E1.3 kmh E 2.2 mph3.5 kmh 30.35 in1027.8 mb 0.00 in0.0 mm 0.00 in0.0 mm 0.00 in0.0 mm
02:25 AM 60.6°F15.9°C 55.8°F13.2°C 84% 0.3 mph E0.5 kmh E 1.6 mph2.6 kmh 30.35 in1027.8 mb 0.00 in0.0 mm 0.00 in0.0 mm 0.00 in0.0 mm
02:30 AM 60.6°F15.9°C 55.8°F13.2°C 84% Calm Calm -- 30.35 in1027.8 mb 0.00 in0.0 mm 0.00 in0.0 mm 0.00 in0.0 mm
02:35 AM 60.6°F15.9°C 55.8°F13.2°C 84% 0.3 mph NNW0.5 kmh NNW 2.0 mph3.2 kmh 30.35 in1027.8 mb 0.00 in0.0 mm 0.00 in0.0 mm 0.00 in0.0 mm
02:37 AM 60.6°F15.9°C 55.8°F13.2°C 84% 1.3 mph N2.1 kmh N 1.3 mph2.1 kmh 30.35 in1027.8 mb 0.00 in0.0 mm 0.00 in0.0 mm 0.00 in0.0 mm
02:40 AM 60.6°F15.9°C 55.8°F13.2°C 84% 1.1 mph NNW1.8 kmh NNW 2.0 mph3.2 kmh 30.35 in1027.8 mb 0.00 in0.0 mm 0.00 in0.0 mm 0.00 in0.0 mm
02:45 AM 60.4°F15.8°C 55.6°F13.1°C 84% 1.7 mph N2.7 kmh N 2.5 mph4.0 kmh 30.35 in1027.8 mb 0.00 in0.0 mm 0.00 in0.0 mm 0.00 in0.0 mm
02:50 AM 60.4°F15.8°C 55.9°F13.3°C 85% 1.3 mph N2.1 kmh N 2.5 mph4.0 kmh 30.35 in1027.8 mb 0.00 in0.0 mm 0.00 in0.0 mm 0.00 in0.0 mm
02:55 AM 60.3°F15.7°C 55.7°F13.2°C 85% 0.5 mph N0.8 kmh N 1.6 mph2.6 kmh 30.35 in1027.8 mb 0.00 in0.0 mm 0.00 in0.0 mm 0.00 in0.0 mm
03:00 AM 60.3°F15.7°C 55.7°F13.2°C 85% Calm Calm -- 30.35 in1027.8 mb 0.00 in0.0 mm 0.00 in0.0 mm 0.00 in0.0 mm
03:05 AM 60.1°F15.6°C 55.6°F13.1°C 85% Calm Calm -- 30.35 in1027.8 mb 0.00 in0.0 mm 0.00 in0.0 mm 0.00 in0.0 mm
03:10 AM 60.1°F15.6°C 55.6°F13.1°C 85% Calm Calm -- 30.35 in1027.8 mb 0.00 in0.0 mm 0.00 in0.0 mm 0.00 in0.0 mm
03:15 AM 59.9°F15.5°C 55.4°F13.0°C 85% Calm Calm -- 30.35 in1027.8 mb 0.00 in0.0 mm 0.00 in0.0 mm 0.00 in0.0 mm
03:20 AM 59.9°F15.5°C 55.4°F13.0°C 85% 0.2 mph N0.3 kmh N 1.1 mph1.8 kmh 30.35 in1027.8 mb 0.00 in0.0 mm 0.00 in0.0 mm 0.00 in0.0 mm
03:25 AM 59.7°F15.4°C 55.2°F12.9°C 85% 0.5 mph N0.8 kmh N 1.1 mph1.8 kmh 30.35 in1027.8 mb 0.00 in0.0 mm 0.00 in0.0 mm 0.00 in0.0 mm
03:30 AM 59.5°F15.3°C 55.0°F12.8°C 85% 0.8 mph N1.3 kmh N 1.1 mph1.8 kmh 30.35 in1027.8 mb 0.00 in0.0 mm 0.00 in0.0 mm 0.00 in0.0 mm
03:35 AM 59.5°F15.3°C 55.0°F12.8°C 85% 0.5 mph N0.8 kmh N 1.1 mph1.8 kmh 30.35 in1027.8 mb 0.00 in0.0 mm 0.00 in0.0 mm 0.00 in0.0 mm
03:37 AM 59.5°F15.3°C 55.0°F12.8°C 85% Calm Calm -- 30.35 in1027.8 mb 0.00 in0.0 mm 0.00 in0.0 mm 0.00 in0.0 mm
03:40 AM 59.4°F15.2°C 54.8°F12.7°C 85% Calm Calm -- 30.35 in1027.8 mb 0.00 in0.0 mm 0.00 in0.0 mm 0.00 in0.0 mm
03:45 AM 59.4°F15.2°C 54.8°F12.7°C 85% Calm Calm -- 30.35 in1027.8 mb 0.00 in0.0 mm 0.00 in0.0 mm 0.00 in0.0 mm
03:50 AM 59.0°F15.0°C 54.5°F12.5°C 85% Calm Calm -- 30.34 in1027.4 mb 0.00 in0.0 mm 0.00 in0.0 mm 0.00 in0.0 mm
03:55 AM 58.8°F14.9°C 54.3°F12.4°C 85% Calm Calm -- 30.34 in1027.4 mb 0.00 in0.0 mm 0.00 in0.0 mm 0.00 in0.0 mm
04:00 AM 58.8°F14.9°C 54.3°F12.4°C 85% 0.2 mph NE0.3 kmh NE 0.9 mph1.4 kmh 30.34 in1027.4 mb 0.00 in0.0 mm 0.00 in0.0 mm 0.00 in0.0 mm
04:05 AM 58.8°F14.9°C 54.3°F12.4°C 85% 0.2 mph NE0.3 kmh NE 0.9 mph1.4 kmh 30.34 in1027.4 mb 0.00 in0.0 mm 0.00 in0.0 mm 0.00 in0.0 mm
04:10 AM 58.6°F14.8°C 54.1°F12.3°C 85% 0.6 mph NE1.0 kmh NE 1.3 mph2.1 kmh 30.33 in1027.1 mb 0.00 in0.0 mm 0.00 in0.0 mm 0.00 in0.0 mm
04:15 AM 58.6°F14.8°C 54.1°F12.3°C 85% 1.2 mph NE1.9 kmh NE 1.3 mph2.1 kmh 30.33 in1027.1 mb 0.00 in0.0 mm 0.00 in0.0 mm 0.00 in0.0 mm
04:20 AM 58.6°F14.8°C 54.1°F12.3°C 85% 1.3 mph NE2.1 kmh NE 1.3 mph2.1 kmh 30.33 in1027.1 mb 0.00 in0.0 mm 0.00 in0.0 mm 0.00 in0.0 mm
04:25 AM 58.5°F14.7°C 54.0°F12.2°C 85% 1.5 mph NE2.4 kmh NE 2.0 mph3.2 kmh 30.33 in1027.1 mb 0.00 in0.0 mm 0.00 in0.0 mm 0.00 in0.0 mm
04:30 AM 58.6°F14.8°C 54.1°F12.3°C 85% 1.7 mph E2.7 kmh E 2.0 mph3.2 kmh 30.33 in1027.1 mb 0.00 in0.0 mm 0.00 in0.0 mm 0.00 in0.0 mm
04:35 AM 58.6°F14.8°C 54.1°F12.3°C 85% 0.8 mph E1.3 kmh E 2.0 mph3.2 kmh 30.33 in1027.1 mb 0.00 in0.0 mm 0.00 in0.0 mm 0.00 in0.0 mm
04:37 AM 58.6°F14.8°C 54.1°F12.3°C 85% Calm Calm -- 30.33 in1027.1 mb 0.00 in0.0 mm 0.00 in0.0 mm 0.00 in0.0 mm
04:40 AM 58.6°F14.8°C 54.1°F12.3°C 85% Calm Calm -- 30.33 in1027.1 mb 0.00 in0.0 mm 0.00 in0.0 mm 0.00 in0.0 mm
04:45 AM 58.6°F14.8°C 54.1°F12.3°C 85% 0.1 mph NNE0.2 kmh NNE 1.6 mph2.6 kmh 30.33 in1027.1 mb 0.00 in0.0 mm 0.00 in0.0 mm 0.00 in0.0 mm
04:50 AM 58.6°F14.8°C 54.1°F12.3°C 85% 0.3 mph NNE0.5 kmh NNE 1.6 mph2.6 kmh 30.33 in1027.1 mb 0.00 in0.0 mm 0.00 in0.0 mm 0.00 in0.0 mm
04:55 AM 58.5°F14.7°C 54.0°F12.2°C 85% 0.5 mph NNE0.8 kmh NNE 1.6 mph2.6 kmh 30.33 in1027.1 mb 0.00 in0.0 mm 0.00 in0.0 mm 0.00 in0.0 mm
05:00 AM 58.5°F14.7°C 54.0°F12.2°C 85% 0.8 mph NE1.3 kmh NE 1.6 mph2.6 kmh 30.33 in1027.1 mb 0.00 in0.0 mm 0.00 in0.0 mm 0.00 in0.0 mm
05:05 AM 58.5°F14.7°C 54.0°F12.2°C 85% 1.1 mph NE1.8 kmh NE 1.6 mph2.6 kmh 30.33 in1027.1 mb 0.00 in0.0 mm 0.00 in0.0 mm 0.00 in0.0 mm
05:10 AM 58.5°F14.7°C 54.0°F12.2°C 85% 0.6 mph NE1.0 kmh NE 1.6 mph2.6 kmh 30.32 in1026.8 mb 0.00 in0.0 mm 0.00 in0.0 mm 0.00 in0.0 mm
05:15 AM 58.5°F14.7°C 54.0°F12.2°C 85% Calm Calm -- 30.32 in1026.8 mb 0.00 in0.0 mm 0.00 in0.0 mm 0.00 in0.0 mm
05:20 AM 58.5°F14.7°C 54.0°F12.2°C 85% Calm Calm -- 30.32 in1026.8 mb 0.00 in0.0 mm 0.00 in0.0 mm 0.00 in0.0 mm
05:25 AM 58.5°F14.7°C 54.0°F12.2°C 84% Calm Calm -- 30.33 in1027.1 mb 0.00 in0.0 mm 0.00 in0.0 mm 0.00 in0.0 mm
05:30 AM 58.5°F14.7°C 53.6°F12.0°C 84% Calm Calm -- 30.33 in1027.1 mb 0.00 in0.0 mm 0.00 in0.0 mm 0.00 in0.0 mm
05:35 AM 58.3°F14.6°C 53.5°F11.9°C 84% Calm Calm -- 30.32 in1026.8 mb 0.00 in0.0 mm 0.00 in0.0 mm 0.00 in0.0 mm
05:37 AM 58.3°F14.6°C 53.5°F11.9°C 84% Calm Calm -- 30.32 in1026.8 mb 0.00 in0.0 mm 0.00 in0.0 mm 0.00 in0.0 mm
05:40 AM 58.3°F14.6°C 53.5°F11.9°C 84% Calm Calm -- 30.33 in1027.1 mb 0.00 in0.0 mm 0.00 in0.0 mm 0.00 in0.0 mm
05:45 AM 58.1°F14.5°C 53.3°F11.8°C 84% Calm Calm -- 30.33 in1027.1 mb 0.00 in0.0 mm 0.00 in0.0 mm 0.00 in0.0 mm
05:50 AM 58.1°F14.5°C 53.3°F11.8°C 84% Calm Calm -- 30.33 in1027.1 mb 0.00 in0.0 mm 0.00 in0.0 mm 0.00 in0.0 mm
05:55 AM 57.9°F14.4°C 53.1°F11.7°C 84% Calm Calm -- 30.33 in1027.1 mb 0.00 in0.0 mm 0.00 in0.0 mm 0.00 in0.0 mm
06:00 AM 57.7°F14.3°C 52.9°F11.6°C 84% Calm Calm -- 30.33 in1027.1 mb 0.00 in0.0 mm 0.00 in0.0 mm 0.00 in0.0 mm
06:05 AM 57.7°F14.3°C 52.9°F11.6°C 84% Calm Calm -- 30.33 in1027.1 mb 0.00 in0.0 mm 0.00 in0.0 mm 0.00 in0.0 mm
06:10 AM 57.6°F14.2°C 52.8°F11.6°C 84% Calm Calm -- 30.33 in1027.1 mb 0.00 in0.0 mm 0.00 in0.0 mm 0.00 in0.0 mm
06:15 AM 57.6°F14.2°C 52.8°F11.6°C 84% Calm Calm -- 30.32 in1026.8 mb 0.00 in0.0 mm 0.00 in0.0 mm 0.00 in0.0 mm
06:20 AM 57.6°F14.2°C 52.8°F11.6°C 84% 0.2 mph ENE0.3 kmh ENE 1.1 mph1.8 kmh 30.33 in1027.1 mb 0.00 in0.0 mm 0.00 in0.0 mm 0.00 in0.0 mm
06:25 AM 57.6°F14.2°C 52.8°F11.6°C 84% 0.2 mph ENE0.3 kmh ENE 1.1 mph1.8 kmh 30.33 in1027.1 mb 0.00 in0.0 mm 0.00 in0.0 mm 0.00 in0.0 mm
06:30 AM 57.6°F14.2°C 52.8°F11.6°C 84% Calm Calm -- 30.33 in1027.1 mb 0.00 in0.0 mm 0.00 in0.0 mm 0.00 in0.0 mm
06:35 AM 57.6°F14.2°C 52.8°F11.6°C 84% Calm Calm -- 30.33 in1027.1 mb 0.00 in0.0 mm 0.00 in0.0 mm 0.00 in0.0 mm
06:37 AM 57.6°F14.2°C 52.8°F11.6°C 84% Calm Calm -- 30.33 in1027.1 mb 0.00 in0.0 mm 0.00 in0.0 mm 0.00 in0.0 mm
06:40 AM 57.6°F14.2°C 52.8°F11.6°C 84% Calm Calm -- 30.34 in1027.4 mb 0.00 in0.0 mm 0.00 in0.0 mm 0.00 in0.0 mm
06:45 AM 57.6°F14.2°C 52.8°F11.6°C 84% Calm Calm -- 30.33 in1027.1 mb 0.00 in0.0 mm 0.00 in0.0 mm 0.00 in0.0 mm
06:50 AM 57.6°F14.2°C 53.1°F11.7°C 85% Calm Calm -- 30.34 in1027.4 mb 0.00 in0.0 mm 0.00 in0.0 mm 0.00 in0.0 mm
06:55 AM 57.7°F14.3°C 53.3°F11.8°C 85% Calm Calm -- 30.34 in1027.4 mb 0.00 in0.0 mm 0.00 in0.0 mm 0.00 in0.0 mm
07:00 AM 57.7°F14.3°C 53.3°F11.8°C 85% Calm Calm -- 30.34 in1027.4 mb 0.00 in0.0 mm 0.00 in0.0 mm 0.00 in0.0 mm
07:05 AM 57.9°F14.4°C 53.4°F11.9°C 85% Calm Calm -- 30.34 in1027.4 mb 0.00 in0.0 mm 0.00 in0.0 mm 0.00 in0.0 mm
07:10 AM 57.9°F14.4°C 53.4°F11.9°C 85% Calm Calm -- 30.34 in1027.4 mb 0.00 in0.0 mm 0.00 in0.0 mm 0.00 in0.0 mm
07:15 AM 58.1°F14.5°C 53.6°F12.0°C 85% Calm Calm -- 30.34 in1027.4 mb 0.00 in0.0 mm 0.00 in0.0 mm 0.00 in0.0 mm
07:20 AM 58.5°F14.7°C 54.3°F12.4°C 86% Calm Calm -- 30.34 in1027.4 mb 0.00 in0.0 mm 0.00 in0.0 mm 0.00 in0.0 mm
07:25 AM 58.8°F14.9°C 54.6°F12.6°C 86% Calm Calm -- 30.34 in1027.4 mb 0.00 in0.0 mm 0.00 in0.0 mm 0.00 in0.0 mm
07:30 AM 59.0°F15.0°C 54.8°F12.7°C 86% Calm Calm -- 30.34 in1027.4 mb 0.00 in0.0 mm 0.00 in0.0 mm 0.00 in0.0 mm
07:35 AM 59.5°F15.3°C 55.7°F13.2°C 87% Calm Calm -- 30.34 in1027.4 mb 0.00 in0.0 mm 0.00 in0.0 mm 0.00 in0.0 mm
07:37 AM 59.5°F15.3°C 55.7°F13.2°C 87% Calm Calm -- 30.34 in1027.4 mb 0.00 in0.0 mm 0.00 in0.0 mm 0.00 in0.0 mm
07:40 AM 59.9°F15.5°C 56.0°F13.3°C 87% Calm Calm -- 30.34 in1027.4 mb 0.00 in0.0 mm 0.00 in0.0 mm 0.00 in0.0 mm
07:45 AM 60.1°F15.6°C 56.2°F13.4°C 87% Calm Calm -- 30.34 in1027.4 mb 0.00 in0.0 mm 0.00 in0.0 mm 0.00 in0.0 mm
07:50 AM 60.6°F15.9°C 56.7°F13.7°C 87% Calm Calm -- 30.34 in1027.4 mb 0.00 in0.0 mm 0.00 in0.0 mm 0.00 in0.0 mm
07:55 AM 61.2°F16.2°C 57.3°F14.1°C 87% Calm Calm -- 30.34 in1027.4 mb 0.00 in0.0 mm 0.00 in0.0 mm 0.00 in0.0 mm
08:00 AM 61.2°F16.2°C 56.9°F13.8°C 86% Calm Calm -- 30.34 in1027.4 mb 0.00 in0.0 mm 0.00 in0.0 mm 0.00 in0.0 mm
08:05 AM 62.2°F16.8°C 58.0°F14.4°C 86% 0.4 mph S0.6 kmh S 1.3 mph2.1 kmh 30.34 in1027.4 mb 0.00 in0.0 mm 0.00 in0.0 mm 0.00 in0.0 mm
08:10 AM 62.4°F16.9°C 57.8°F14.3°C 85% 1.0 mph S1.6 kmh S 1.8 mph2.9 kmh 30.34 in1027.4 mb 0.00 in0.0 mm 0.00 in0.0 mm 0.00 in0.0 mm
08:15 AM 62.8°F17.1°C 58.5°F14.7°C 86% 1.2 mph S1.9 kmh S 1.8 mph2.9 kmh 30.34 in1027.4 mb 0.00 in0.0 mm 0.00 in0.0 mm 0.00 in0.0 mm
08:20 AM 63.1°F17.3°C 58.6°F14.8°C 85% 0.6 mph SSW1.0 kmh SSW 1.3 mph2.1 kmh 30.34 in1027.4 mb 0.00 in0.0 mm 0.00 in0.0 mm 0.00 in0.0 mm
08:25 AM 63.3°F17.4°C 58.7°F14.8°C 85% 0.6 mph SSW1.0 kmh SSW 1.3 mph2.1 kmh 30.34 in1027.4 mb 0.00 in0.0 mm 0.00 in0.0 mm 0.00 in0.0 mm
08:30 AM 63.7°F17.6°C 58.8°F14.9°C 84% 0.9 mph S1.4 kmh S 1.3 mph2.1 kmh 30.34 in1027.4 mb 0.00 in0.0 mm 0.00 in0.0 mm 0.00 in0.0 mm
08:35 AM 63.7°F17.6°C 58.8°F14.9°C 84% 1.5 mph S2.4 kmh S 2.7 mph4.3 kmh 30.34 in1027.4 mb 0.00 in0.0 mm 0.00 in0.0 mm 0.00 in0.0 mm
08:37 AM 64.0°F17.8°C 59.1°F15.1°C 84% Calm Calm -- 30.34 in1027.4 mb 0.00 in0.0 mm 0.00 in0.0 mm 0.00 in0.0 mm
08:40 AM 64.0°F17.8°C 58.8°F14.9°C 83% 1.6 mph S2.6 kmh S 2.7 mph4.3 kmh 30.34 in1027.4 mb 0.00 in0.0 mm 0.00 in0.0 mm 0.00 in0.0 mm
08:45 AM 64.0°F17.8°C 58.8°F14.9°C 83% 1.5 mph S2.4 kmh S 2.9 mph4.7 kmh 30.34 in1027.4 mb 0.00 in0.0 mm 0.00 in0.0 mm 0.00 in0.0 mm
08:50 AM 64.2°F17.9°C 58.6°F14.8°C 82% 1.9 mph S3.1 kmh S 3.1 mph5.0 kmh 30.34 in1027.4 mb 0.00 in0.0 mm 0.00 in0.0 mm 0.00 in0.0 mm
08:55 AM 64.6°F18.1°C 59.0°F15.0°C 82% 2.2 mph S3.5 kmh S 3.1 mph5.0 kmh 30.34 in1027.4 mb 0.00 in0.0 mm 0.00 in0.0 mm 0.00 in0.0 mm
09:00 AM 64.6°F18.1°C 58.6°F14.8°C 81% 2.2 mph S3.5 kmh S 3.1 mph5.0 kmh 30.34 in1027.4 mb 0.00 in0.0 mm 0.00 in0.0 mm 0.00 in0.0 mm
09:05 AM 64.9°F18.3°C 59.0°F15.0°C 81% 2.2 mph SSE3.5 kmh SSE 2.9 mph4.7 kmh 30.34 in1027.4 mb 0.00 in0.0 mm 0.00 in0.0 mm 0.00 in0.0 mm
09:10 AM 64.9°F18.3°C 58.6°F14.8°C 80% 2.1 mph S3.4 kmh S 2.9 mph4.7 kmh 30.34 in1027.4 mb 0.00 in0.0 mm 0.00 in0.0 mm 0.00 in0.0 mm
09:15 AM 64.9°F18.3°C 58.6°F14.8°C 80% 0.8 mph S1.3 kmh S 2.2 mph3.5 kmh 30.34 in1027.4 mb 0.00 in0.0 mm 0.00 in0.0 mm 0.00 in0.0 mm
09:20 AM 64.9°F18.3°C 58.6°F14.8°C 80% Calm Calm -- 30.34 in1027.4 mb 0.00 in0.0 mm 0.00 in0.0 mm 0.00 in0.0 mm
09:25 AM 65.5°F18.6°C 59.1°F15.1°C 80% Calm Calm -- 30.33 in1027.1 mb 0.00 in0.0 mm 0.00 in0.0 mm 0.00 in0.0 mm
09:30 AM 65.5°F18.6°C 59.1°F15.1°C 80% Calm Calm -- 30.33 in1027.1 mb 0.00 in0.0 mm 0.00 in0.0 mm 0.00 in0.0 mm
09:35 AM 65.5°F18.6°C 59.1°F15.1°C 80% Calm Calm -- 30.33 in1027.1 mb 0.00 in0.0 mm 0.00 in0.0 mm 0.00 in0.0 mm
09:37 AM 65.5°F18.6°C 59.1°F15.1°C 80% 1.6 mph SSE2.6 kmh SSE 1.6 mph2.6 kmh 30.33 in1027.1 mb 0.00 in0.0 mm 0.00 in0.0 mm 0.00 in0.0 mm
09:40 AM 66.4°F19.1°C 60.0°F15.6°C 80% 0.7 mph SSE1.1 kmh SSE 2.9 mph4.7 kmh 30.32 in1026.8 mb 0.00 in0.0 mm 0.00 in0.0 mm 0.00 in0.0 mm
09:45 AM 66.7°F19.3°C 60.4°F15.8°C 80% 2.0 mph S3.2 kmh S 2.9 mph4.7 kmh 30.33 in1027.1 mb 0.00 in0.0 mm 0.00 in0.0 mm 0.00 in0.0 mm
09:50 AM 67.1°F19.5°C 60.4°F15.8°C 79% 2.2 mph S3.5 kmh S 2.9 mph4.7 kmh 30.33 in1027.1 mb 0.00 in0.0 mm 0.00 in0.0 mm 0.00 in0.0 mm
09:55 AM 67.1°F19.5°C 60.4°F15.8°C 79% 1.1 mph SSW1.8 kmh SSW 2.5 mph4.0 kmh 30.33 in1027.1 mb 0.00 in0.0 mm 0.00 in0.0 mm 0.00 in0.0 mm
10:00 AM 67.6°F19.8°C 60.9°F16.1°C 79% 0.8 mph S1.3 kmh S 3.6 mph5.8 kmh 30.32 in1026.8 mb 0.00 in0.0 mm 0.00 in0.0 mm 0.00 in0.0 mm
10:05 AM 68.0°F20.0°C 60.9°F16.1°C 78% 1.9 mph S3.1 kmh S 3.6 mph5.8 kmh 30.33 in1027.1 mb 0.00 in0.0 mm 0.00 in0.0 mm 0.00 in0.0 mm
10:10 AM 68.2°F20.1°C 61.1°F16.2°C 78% 2.4 mph S3.9 kmh S 3.1 mph5.0 kmh 30.32 in1026.8 mb 0.00 in0.0 mm 0.00 in0.0 mm 0.00 in0.0 mm
10:15 AM 68.4°F20.2°C 61.2°F16.2°C 78% 1.8 mph S2.9 kmh S 3.1 mph5.0 kmh 30.32 in1026.8 mb 0.00 in0.0 mm 0.00 in0.0 mm 0.00 in0.0 mm
10:20 AM 68.4°F20.2°C 61.2°F16.2°C 78% 1.0 mph S1.6 kmh S 3.1 mph5.0 kmh 30.32 in1026.8 mb 0.00 in0.0 mm 0.00 in0.0 mm 0.00 in0.0 mm
10:25 AM 68.4°F20.2°C 61.2°F16.2°C 78% 0.9 mph S1.4 kmh S 0.9 mph1.4 kmh 30.32 in1026.8 mb 0.00 in0.0 mm 0.00 in0.0 mm 0.00 in0.0 mm
10:30 AM 68.4°F20.2°C 61.2°F16.2°C 78% 0.9 mph S1.4 kmh S 0.9 mph1.4 kmh 30.32 in1026.8 mb 0.00 in0.0 mm 0.00 in0.0 mm 0.00 in0.0 mm
10:35 AM 69.6°F20.9°C 62.5°F16.9°C 78% 0.9 mph S1.4 kmh S 0.9 mph1.4 kmh 30.32 in1026.8 mb 0.00 in0.0 mm 0.00 in0.0 mm 0.00 in0.0 mm
10:37 AM 69.8°F21.0°C 61.9°F16.6°C 76% Calm Calm -- 30.32 in1026.8 mb 0.00 in0.0 mm 0.00 in0.0 mm 0.00 in0.0 mm
10:40 AM 69.8°F21.0°C 61.9°F16.6°C 76% Calm Calm -- 30.32 in1026.8 mb 0.00 in0.0 mm 0.00 in0.0 mm 0.00 in0.0 mm
10:45 AM 70.3°F21.3°C 62.4°F16.9°C 76% 0.1 mph SSW0.2 kmh SSW 2.5 mph4.0 kmh 30.32 in1026.8 mb 0.00 in0.0 mm 0.00 in0.0 mm 0.00 in0.0 mm
10:50 AM 70.3°F21.3°C 62.0°F16.7°C 75% 1.4 mph S2.3 kmh S 4.7 mph7.6 kmh 30.32 in1026.8 mb 0.00 in0.0 mm 0.00 in0.0 mm 0.00 in0.0 mm
10:55 AM 70.3°F21.3°C 62.0°F16.7°C 75% 3.7 mph S6.0 kmh S 4.7 mph7.6 kmh 30.31 in1026.4 mb 0.00 in0.0 mm 0.00 in0.0 mm 0.00 in0.0 mm
11:00 AM 71.2°F21.8°C 62.1°F16.7°C 73% 4.3 mph S6.9 kmh S 4.7 mph7.6 kmh 30.31 in1026.4 mb 0.00 in0.0 mm 0.00 in0.0 mm 0.00 in0.0 mm
11:05 AM 71.4°F21.9°C 62.3°F16.8°C 73% 3.3 mph S5.3 kmh S 4.7 mph7.6 kmh 30.31 in1026.4 mb 0.00 in0.0 mm 0.00 in0.0 mm 0.00 in0.0 mm
11:10 AM 71.4°F21.9°C 62.3°F16.8°C 73% 2.7 mph S4.3 kmh S 5.8 mph9.3 kmh 30.30 in1026.1 mb 0.00 in0.0 mm 0.00 in0.0 mm 0.00 in0.0 mm
11:15 AM 71.8°F22.1°C 62.7°F17.1°C 73% 3.4 mph S5.5 kmh S 5.8 mph9.3 kmh 30.31 in1026.4 mb 0.00 in0.0 mm 0.00 in0.0 mm 0.00 in0.0 mm
11:20 AM 72.1°F22.3°C 62.6°F17.0°C 72% 3.6 mph S5.8 kmh S 5.8 mph9.3 kmh 30.30 in1026.1 mb 0.00 in0.0 mm 0.00 in0.0 mm 0.00 in0.0 mm
11:25 AM 72.1°F22.3°C 62.6°F17.0°C 72% 3.7 mph S6.0 kmh S 5.1 mph8.2 kmh 30.30 in1026.1 mb 0.00 in0.0 mm 0.00 in0.0 mm 0.00 in0.0 mm
11:30 AM 72.3°F22.4°C 62.0°F16.7°C 70% 3.9 mph S6.3 kmh S 5.1 mph8.2 kmh 30.30 in1026.1 mb 0.00 in0.0 mm 0.00 in0.0 mm 0.00 in0.0 mm
11:35 AM 72.3°F22.4°C 62.0°F16.7°C 70% 2.2 mph S3.5 kmh S 5.1 mph8.2 kmh 30.30 in1026.1 mb 0.00 in0.0 mm 0.00 in0.0 mm 0.00 in0.0 mm
11:37 AM 72.3°F22.4°C 62.0°F16.7°C 70% 1.3 mph E2.1 kmh E 1.3 mph2.1 kmh 30.30 in1026.1 mb 0.00 in0.0 mm 0.00 in0.0 mm 0.00 in0.0 mm
11:40 AM 72.3°F22.4°C 62.0°F16.7°C 70% 1.6 mph SE2.6 kmh SE 4.9 mph7.9 kmh 30.30 in1026.1 mb 0.00 in0.0 mm 0.00 in0.0 mm 0.00 in0.0 mm
11:45 AM 72.5°F22.5°C 62.2°F16.8°C 70% 2.5 mph S4.0 kmh S 4.9 mph7.9 kmh 30.30 in1026.1 mb 0.00 in0.0 mm 0.00 in0.0 mm 0.00 in0.0 mm
11:50 AM 72.7°F22.6°C 62.3°F16.8°C 70% 3.3 mph S5.3 kmh S 4.9 mph7.9 kmh 30.30 in1026.1 mb 0.00 in0.0 mm 0.00 in0.0 mm 0.00 in0.0 mm
11:55 AM 73.0°F22.8°C 62.3°F16.8°C 69% 4.0 mph SSE6.4 kmh SSE 4.9 mph7.9 kmh 30.29 in1025.7 mb 0.00 in0.0 mm 0.00 in0.0 mm 0.00 in0.0 mm
12:00 PM 73.0°F22.8°C 62.3°F16.8°C 69% 3.5 mph S5.6 kmh S 4.7 mph7.6 kmh 30.30 in1026.1 mb 0.00 in0.0 mm 0.00 in0.0 mm 0.00 in0.0 mm
12:05 PM 73.2°F22.9°C 62.0°F16.7°C 68% 3.1 mph SSW5.0 kmh SSW 4.0 mph6.4 kmh 30.29 in1025.7 mb 0.00 in0.0 mm 0.00 in0.0 mm 0.00 in0.0 mm
12:10 PM 73.2°F22.9°C 62.0°F16.7°C 68% 2.6 mph SW4.2 kmh SW 5.6 mph9.0 kmh 30.29 in1025.7 mb 0.00 in0.0 mm 0.00 in0.0 mm 0.00 in0.0 mm
12:15 PM 73.2°F22.9°C 62.4°F16.9°C 69% 2.1 mph WSW3.4 kmh WSW 5.6 mph9.0 kmh 30.28 in1025.4 mb 0.00 in0.0 mm 0.00 in0.0 mm 0.00 in0.0 mm
12:20 PM 73.6°F23.1°C 62.4°F16.9°C 68% 1.8 mph WSW2.9 kmh WSW 5.6 mph9.0 kmh 30.28 in1025.4 mb 0.00 in0.0 mm 0.00 in0.0 mm 0.00 in0.0 mm
12:25 PM 73.6°F23.1°C 62.4°F16.9°C 68% 1.4 mph S2.3 kmh S 2.2 mph3.5 kmh 30.28 in1025.4 mb 0.00 in0.0 mm 0.00 in0.0 mm 0.00 in0.0 mm
12:30 PM 73.9°F23.3°C 62.7°F17.1°C 68% 1.9 mph S3.1 kmh S 2.2 mph3.5 kmh 30.27 in1025.1 mb 0.00 in0.0 mm 0.00 in0.0 mm 0.00 in0.0 mm
12:35 PM 73.9°F23.3°C 62.3°F16.8°C 67% 2.5 mph S4.0 kmh S 3.8 mph6.1 kmh 30.27 in1025.1 mb 0.00 in0.0 mm 0.00 in0.0 mm 0.00 in0.0 mm
12:37 PM 74.1°F23.4°C 62.5°F16.9°C 67% 3.8 mph SW6.1 kmh SW 3.8 mph6.1 kmh 30.27 in1025.1 mb 0.00 in0.0 mm 0.00 in0.0 mm 0.00 in0.0 mm
12:40 PM 74.1°F23.4°C 62.5°F16.9°C 67% 3.0 mph S4.8 kmh S 3.8 mph6.1 kmh 30.27 in1025.1 mb 0.00 in0.0 mm 0.00 in0.0 mm 0.00 in0.0 mm
12:45 PM 74.3°F23.5°C 62.6°F17.0°C 67% 2.5 mph SW4.0 kmh SW 3.8 mph6.1 kmh 30.27 in1025.1 mb 0.00 in0.0 mm 0.00 in0.0 mm 0.00 in0.0 mm
12:50 PM 74.5°F23.6°C 62.8°F17.1°C 67% 2.3 mph SSW3.7 kmh SSW 4.3 mph6.9 kmh 30.27 in1025.1 mb 0.00 in0.0 mm 0.00 in0.0 mm 0.00 in0.0 mm
12:55 PM 74.8°F23.8°C 63.1°F17.3°C 67% 3.2 mph S5.1 kmh S 4.3 mph6.9 kmh 30.27 in1025.1 mb 0.00 in0.0 mm 0.00 in0.0 mm 0.00 in0.0 mm
01:00 PM 74.8°F23.8°C 63.1°F17.3°C 67% 4.8 mph SW7.7 kmh SW 6.0 mph9.7 kmh 30.27 in1025.1 mb 0.00 in0.0 mm 0.00 in0.0 mm 0.00 in0.0 mm
01:05 PM 75.0°F23.9°C 62.9°F17.2°C 66% 4.7 mph SW7.6 kmh SW 6.0 mph9.7 kmh 30.26 in1024.7 mb 0.00 in0.0 mm 0.00 in0.0 mm 0.00 in0.0 mm
01:10 PM 75.0°F23.9°C 62.5°F16.9°C 65% 2.9 mph S4.7 kmh S 6.0 mph9.7 kmh 30.26 in1024.7 mb 0.00 in0.0 mm 0.00 in0.0 mm 0.00 in0.0 mm
01:15 PM 75.0°F23.9°C 62.5°F16.9°C 65% 3.1 mph SSE5.0 kmh SSE 4.7 mph7.6 kmh 30.26 in1024.7 mb 0.00 in0.0 mm 0.00 in0.0 mm 0.00 in0.0 mm
01:20 PM 75.0°F23.9°C 62.9°F17.2°C 66% 2.5 mph SSE4.0 kmh SSE 4.7 mph7.6 kmh 30.26 in1024.7 mb 0.00 in0.0 mm 0.00 in0.0 mm 0.00 in0.0 mm
01:25 PM 75.0°F23.9°C 62.9°F17.2°C 66% 1.7 mph SSE2.7 kmh SSE 3.4 mph5.5 kmh 30.26 in1024.7 mb 0.00 in0.0 mm 0.00 in0.0 mm 0.00 in0.0 mm
01:30 PM 75.4°F24.1°C 63.2°F17.3°C 66% 1.6 mph SSE2.6 kmh SSE 6.3 mph10.1 kmh 30.25 in1024.4 mb 0.00 in0.0 mm 0.00 in0.0 mm 0.00 in0.0 mm
01:35 PM 75.4°F24.1°C 63.7°F17.6°C 67% 2.9 mph SSW4.7 kmh SSW 6.3 mph10.1 kmh 30.25 in1024.4 mb 0.00 in0.0 mm 0.00 in0.0 mm 0.00 in0.0 mm
01:37 PM 75.6°F24.2°C 63.4°F17.4°C 66% 1.1 mph S1.8 kmh S 1.1 mph1.8 kmh 30.25 in1024.4 mb 0.00 in0.0 mm 0.00 in0.0 mm 0.00 in0.0 mm
01:40 PM 75.6°F24.2°C 63.4°F17.4°C 66% 4.5 mph S7.2 kmh S 7.2 mph11.6 kmh 30.25 in1024.4 mb 0.00 in0.0 mm 0.00 in0.0 mm 0.00 in0.0 mm
01:45 PM 75.6°F24.2°C 63.4°F17.4°C 66% 2.8 mph SSE4.5 kmh SSE 7.2 mph11.6 kmh 30.25 in1024.4 mb 0.00 in0.0 mm 0.00 in0.0 mm 0.00 in0.0 mm
01:50 PM 75.6°F24.2°C 63.4°F17.4°C 66% 3.7 mph SSE6.0 kmh SSE 7.2 mph11.6 kmh 30.25 in1024.4 mb 0.00 in0.0 mm 0.00 in0.0 mm 0.00 in0.0 mm
01:55 PM 75.7°F24.3°C 62.7°F17.1°C 64% 5.4 mph S8.7 kmh S 5.4 mph8.7 kmh 30.25 in1024.4 mb 0.00 in0.0 mm 0.00 in0.0 mm 0.00 in0.0 mm
02:00 PM 75.7°F24.3°C 62.7°F17.1°C 64% 5.6 mph S9.0 kmh S 6.5 mph10.5 kmh 30.24 in1024.0 mb 0.00 in0.0 mm 0.00 in0.0 mm 0.00 in0.0 mm
02:05 PM 75.6°F24.2°C 62.5°F16.9°C 64% 4.9 mph S7.9 kmh S 6.5 mph10.5 kmh 30.24 in1024.0 mb 0.00 in0.0 mm 0.00 in0.0 mm 0.00 in0.0 mm
02:10 PM 75.4°F24.1°C 62.4°F16.9°C 64% 2.9 mph S4.7 kmh S 6.0 mph9.7 kmh 30.24 in1024.0 mb 0.00 in0.0 mm 0.00 in0.0 mm 0.00 in0.0 mm
02:15 PM 75.6°F24.2°C 63.0°F17.2°C 65% 0.9 mph SSE1.4 kmh SSE 2.7 mph4.3 kmh 30.23 in1023.7 mb 0.00 in0.0 mm 0.00 in0.0 mm 0.00 in0.0 mm
02:20 PM 75.6°F24.2°C 63.0°F17.2°C 65% 0.8 mph S1.3 kmh S 2.5 mph4.0 kmh 30.23 in1023.7 mb 0.00 in0.0 mm 0.00 in0.0 mm 0.00 in0.0 mm
02:25 PM 75.7°F24.3°C 63.1°F17.3°C 65% 2.6 mph S4.2 kmh S 5.6 mph9.0 kmh 30.23 in1023.7 mb 0.00 in0.0 mm 0.00 in0.0 mm 0.00 in0.0 mm
02:30 PM 75.7°F24.3°C 63.1°F17.3°C 65% 3.0 mph S4.8 kmh S 5.6 mph9.0 kmh 30.23 in1023.7 mb 0.00 in0.0 mm 0.00 in0.0 mm 0.00 in0.0 mm
02:35 PM 75.9°F24.4°C 63.3°F17.4°C 65% 2.6 mph S4.2 kmh S 3.4 mph5.5 kmh 30.22 in1023.4 mb 0.00 in0.0 mm 0.00 in0.0 mm 0.00 in0.0 mm
02:37 PM 75.9°F24.4°C 63.3°F17.4°C 65% 6.3 mph SE10.1 kmh SE 6.3 mph10.1 kmh 30.23 in1023.7 mb 0.00 in0.0 mm 0.00 in0.0 mm 0.00 in0.0 mm
02:40 PM 76.1°F24.5°C 63.0°F17.2°C 64% 2.9 mph SE4.7 kmh SE 6.3 mph10.1 kmh 30.22 in1023.4 mb 0.00 in0.0 mm 0.00 in0.0 mm 0.00 in0.0 mm
02:45 PM 76.1°F24.5°C 62.6°F17.0°C 63% 2.8 mph SE4.5 kmh SE 6.3 mph10.1 kmh 30.22 in1023.4 mb 0.00 in0.0 mm 0.00 in0.0 mm 0.00 in0.0 mm
02:50 PM 76.1°F24.5°C 63.0°F17.2°C 64% 3.4 mph S5.5 kmh S 6.7 mph10.8 kmh 30.22 in1023.4 mb 0.00 in0.0 mm 0.00 in0.0 mm 0.00 in0.0 mm
02:55 PM 76.1°F24.5°C 63.0°F17.2°C 64% 3.9 mph S6.3 kmh S 6.7 mph10.8 kmh 30.22 in1023.4 mb 0.00 in0.0 mm 0.00 in0.0 mm 0.00 in0.0 mm
03:00 PM 76.1°F24.5°C 63.0°F17.2°C 64% 2.7 mph S4.3 kmh S 6.7 mph10.8 kmh 30.22 in1023.4 mb 0.00 in0.0 mm 0.00 in0.0 mm 0.00 in0.0 mm
03:05 PM 76.1°F24.5°C 63.0°F17.2°C 64% 2.5 mph SE4.0 kmh SE 3.4 mph5.5 kmh 30.21 in1023.0 mb 0.00 in0.0 mm 0.00 in0.0 mm 0.00 in0.0 mm
03:10 PM 76.3°F24.6°C 63.2°F17.3°C 64% 3.1 mph SE5.0 kmh SE 5.8 mph9.3 kmh 30.21 in1023.0 mb 0.00 in0.0 mm 0.00 in0.0 mm 0.00 in0.0 mm
03:15 PM 76.3°F24.6°C 63.2°F17.3°C 64% 2.5 mph SE4.0 kmh SE 5.8 mph9.3 kmh 30.22 in1023.4 mb 0.00 in0.0 mm 0.00 in0.0 mm 0.00 in0.0 mm
03:20 PM 76.3°F24.6°C 63.2°F17.3°C 64% 2.3 mph SE3.7 kmh SE 5.8 mph9.3 kmh 30.22 in1023.4 mb 0.00 in0.0 mm 0.00 in0.0 mm 0.00 in0.0 mm
03:25 PM 76.3°F24.6°C 63.2°F17.3°C 64% 3.0 mph SSE4.8 kmh SSE 4.7 mph7.6 kmh 30.22 in1023.4 mb 0.00 in0.0 mm 0.00 in0.0 mm 0.00 in0.0 mm
03:30 PM 76.1°F24.5°C 62.6°F17.0°C 63% 3.4 mph S5.5 kmh S 4.7 mph7.6 kmh 30.22 in1023.4 mb 0.00 in0.0 mm 0.00 in0.0 mm 0.00 in0.0 mm
03:35 PM 76.1°F24.5°C 62.6°F17.0°C 63% 3.6 mph S5.8 kmh S 4.7 mph7.6 kmh 30.22 in1023.4 mb 0.00 in0.0 mm 0.00 in0.0 mm 0.00 in0.0 mm
03:37 PM 76.1°F24.5°C 62.6°F17.0°C 63% 4.7 mph SSE7.6 kmh SSE 4.7 mph7.6 kmh 30.22 in1023.4 mb 0.00 in0.0 mm 0.00 in0.0 mm 0.00 in0.0 mm
03:40 PM 76.1°F24.5°C 62.6°F17.0°C 63% 4.3 mph SSE6.9 kmh SSE 4.7 mph7.6 kmh 30.22 in1023.4 mb 0.00 in0.0 mm 0.00 in0.0 mm 0.00 in0.0 mm
03:45 PM 75.7°F24.3°C 62.2°F16.8°C 63% 3.7 mph SSE6.0 kmh SSE 4.7 mph7.6 kmh 30.22 in1023.4 mb 0.00 in0.0 mm 0.00 in0.0 mm 0.00 in0.0 mm
03:50 PM 75.6°F24.2°C 62.1°F16.7°C 63% 2.5 mph SSE4.0 kmh SSE 4.7 mph7.6 kmh 30.21 in1023.0 mb 0.00 in0.0 mm 0.00 in0.0 mm 0.00 in0.0 mm
03:55 PM 75.6°F24.2°C 62.5°F16.9°C 64% 2.6 mph SE4.2 kmh SE 4.0 mph6.4 kmh 30.21 in1023.0 mb 0.00 in0.0 mm 0.00 in0.0 mm 0.00 in0.0 mm
04:00 PM 75.6°F24.2°C 62.5°F16.9°C 64% 3.5 mph SE5.6 kmh SE 4.0 mph6.4 kmh 30.21 in1023.0 mb 0.00 in0.0 mm 0.00 in0.0 mm 0.00 in0.0 mm
04:05 PM 75.6°F24.2°C 63.0°F17.2°C 65% 4.0 mph SE6.4 kmh SE 4.9 mph7.9 kmh 30.21 in1023.0 mb 0.00 in0.0 mm 0.00 in0.0 mm 0.00 in0.0 mm
04:10 PM 75.6°F24.2°C 63.0°F17.2°C 65% 3.7 mph SE6.0 kmh SE 4.9 mph7.9 kmh 30.21 in1023.0 mb 0.00 in0.0 mm 0.00 in0.0 mm 0.00 in0.0 mm
04:15 PM 75.4°F24.1°C 62.4°F16.9°C 64% 2.8 mph SSE4.5 kmh SSE 4.9 mph7.9 kmh 30.21 in1023.0 mb 0.00 in0.0 mm 0.00 in0.0 mm 0.00 in0.0 mm
04:20 PM 75.2°F24.0°C 62.6°F17.0°C 65% 1.6 mph S2.6 kmh S 3.1 mph5.0 kmh 30.21 in1023.0 mb 0.00 in0.0 mm 0.00 in0.0 mm 0.00 in0.0 mm
04:25 PM 75.2°F24.0°C 62.6°F17.0°C 65% 1.3 mph S2.1 kmh S 1.6 mph2.6 kmh 30.21 in1023.0 mb 0.00 in0.0 mm 0.00 in0.0 mm 0.00 in0.0 mm
04:30 PM 75.0°F23.9°C 62.5°F16.9°C 65% 1.9 mph SSW3.1 kmh SSW 4.0 mph6.4 kmh 30.21 in1023.0 mb 0.00 in0.0 mm 0.00 in0.0 mm 0.00 in0.0 mm
04:35 PM 75.0°F23.9°C 62.5°F16.9°C 65% 2.3 mph SW3.7 kmh SW 4.0 mph6.4 kmh 30.21 in1023.0 mb 0.00 in0.0 mm 0.00 in0.0 mm 0.00 in0.0 mm
04:37 PM 75.2°F24.0°C 62.6°F17.0°C 65% 1.6 mph SSW2.6 kmh SSW 1.6 mph2.6 kmh 30.21 in1023.0 mb 0.00 in0.0 mm 0.00 in0.0 mm 0.00 in0.0 mm
04:40 PM 75.4°F24.1°C 62.8°F17.1°C 65% 1.6 mph SW2.6 kmh SW 4.0 mph6.4 kmh 30.20 in1022.7 mb 0.00 in0.0 mm 0.00 in0.0 mm 0.00 in0.0 mm
04:45 PM 75.4°F24.1°C 62.8°F17.1°C 65% 0.9 mph SW1.4 kmh SW 2.0 mph3.2 kmh 30.20 in1022.7 mb 0.00 in0.0 mm 0.00 in0.0 mm 0.00 in0.0 mm
04:50 PM 75.4°F24.1°C 62.8°F17.1°C 65% 0.4 mph WSW0.6 kmh WSW 2.0 mph3.2 kmh 30.20 in1022.7 mb 0.00 in0.0 mm 0.00 in0.0 mm 0.00 in0.0 mm
04:55 PM 75.4°F24.1°C 62.8°F17.1°C 65% 0.3 mph SW0.5 kmh SW 0.7 mph1.1 kmh 30.20 in1022.7 mb 0.00 in0.0 mm 0.00 in0.0 mm 0.00 in0.0 mm
05:00 PM 75.6°F24.2°C 63.4°F17.4°C 66% 0.4 mph SW0.6 kmh SW 0.7 mph1.1 kmh 30.20 in1022.7 mb 0.00 in0.0 mm 0.00 in0.0 mm 0.00 in0.0 mm
05:05 PM 75.4°F24.1°C 62.8°F17.1°C 65% 0.2 mph SW0.3 kmh SW 0.7 mph1.1 kmh 30.20 in1022.7 mb 0.00 in0.0 mm 0.00 in0.0 mm 0.00 in0.0 mm
05:10 PM 75.4°F24.1°C 62.8°F17.1°C 65% Calm Calm -- 30.19 in1022.4 mb 0.00 in0.0 mm 0.00 in0.0 mm 0.00 in0.0 mm
05:15 PM 75.0°F23.9°C 62.5°F16.9°C 65% Calm Calm -- 30.20 in1022.7 mb 0.00 in0.0 mm 0.00 in0.0 mm 0.00 in0.0 mm
05:20 PM 75.0°F23.9°C 62.9°F17.2°C 66% Calm Calm -- 30.19 in1022.4 mb 0.00 in0.0 mm 0.00 in0.0 mm 0.00 in0.0 mm
05:25 PM 74.5°F23.6°C 62.4°F16.9°C 66% Calm Calm -- 30.19 in1022.4 mb 0.00 in0.0 mm 0.00 in0.0 mm 0.00 in0.0 mm
05:30 PM 74.1°F23.4°C 62.0°F16.7°C 66% 0.4 mph SSE0.6 kmh SSE 2.0 mph3.2 kmh 30.19 in1022.4 mb 0.00 in0.0 mm 0.00 in0.0 mm 0.00 in0.0 mm
05:35 PM 73.9°F23.3°C 61.9°F16.6°C 66% 0.4 mph SSE0.6 kmh SSE 2.0 mph3.2 kmh 30.19 in1022.4 mb 0.00 in0.0 mm 0.00 in0.0 mm 0.00 in0.0 mm
05:37 PM 73.9°F23.3°C 61.9°F16.6°C 66% Calm Calm -- 30.19 in1022.4 mb 0.00 in0.0 mm 0.00 in0.0 mm 0.00 in0.0 mm
05:40 PM 73.2°F22.9°C 61.2°F16.2°C 66% 0.5 mph S0.8 kmh S 2.5 mph4.0 kmh 30.19 in1022.4 mb 0.00 in0.0 mm 0.00 in0.0 mm 0.00 in0.0 mm
05:45 PM 72.7°F22.6°C 60.7°F15.9°C 66% 0.9 mph S1.4 kmh S 2.5 mph4.0 kmh 30.19 in1022.4 mb 0.00 in0.0 mm 0.00 in0.0 mm 0.00 in0.0 mm
05:50 PM 72.5°F22.5°C 60.5°F15.8°C 66% 0.7 mph SE1.1 kmh SE 2.5 mph4.0 kmh 30.19 in1022.4 mb 0.00 in0.0 mm 0.00 in0.0 mm 0.00 in0.0 mm
05:55 PM 72.1°F22.3°C 60.6°F15.9°C 67% 0.7 mph E1.1 kmh E 1.1 mph1.8 kmh 30.19 in1022.4 mb 0.00 in0.0 mm 0.00 in0.0 mm 0.00 in0.0 mm
06:00 PM 71.8°F22.1°C 59.8°F15.4°C 66% 0.4 mph NE0.6 kmh NE 1.1 mph1.8 kmh 30.19 in1022.4 mb 0.00 in0.0 mm 0.00 in0.0 mm 0.00 in0.0 mm
06:05 PM 71.4°F21.9°C 59.5°F15.3°C 66% Calm Calm -- 30.19 in1022.4 mb 0.00 in0.0 mm 0.00 in0.0 mm 0.00 in0.0 mm
06:10 PM 70.9°F21.6°C 59.0°F15.0°C 66% 0.4 mph ESE0.6 kmh ESE 2.0 mph3.2 kmh 30.19 in1022.4 mb 0.00 in0.0 mm 0.00 in0.0 mm 0.00 in0.0 mm
06:15 PM 70.5°F21.4°C 58.6°F14.8°C 66% 1.2 mph ESE1.9 kmh ESE 2.7 mph4.3 kmh 30.19 in1022.4 mb 0.00 in0.0 mm 0.00 in0.0 mm 0.00 in0.0 mm
06:20 PM 70.3°F21.3°C 58.4°F14.7°C 66% 1.4 mph ESE2.3 kmh ESE 2.7 mph4.3 kmh 30.19 in1022.4 mb 0.00 in0.0 mm 0.00 in0.0 mm 0.00 in0.0 mm
06:25 PM 69.8°F21.0°C 57.9°F14.4°C 66% 2.5 mph SE4.0 kmh SE 4.7 mph7.6 kmh 30.19 in1022.4 mb 0.00 in0.0 mm 0.00 in0.0 mm 0.00 in0.0 mm
06:30 PM 69.6°F20.9°C 57.8°F14.3°C 66% 3.6 mph SE5.8 kmh SE 4.7 mph7.6 kmh 30.19 in1022.4 mb 0.00 in0.0 mm 0.00 in0.0 mm 0.00 in0.0 mm
06:35 PM 69.4°F20.8°C 58.0°F14.4°C 67% 2.7 mph SE4.3 kmh SE 4.0 mph6.4 kmh 30.19 in1022.4 mb 0.00 in0.0 mm 0.00 in0.0 mm 0.00 in0.0 mm
06:37 PM 69.3°F20.7°C 57.8°F14.3°C 67% 1.6 mph E2.6 kmh E 1.6 mph2.6 kmh 30.19 in1022.4 mb 0.00 in0.0 mm 0.00 in0.0 mm 0.00 in0.0 mm
07:37 PM 67.3°F19.6°C 57.6°F14.2°C 71% Calm Calm -- 30.19 in1022.4 mb 0.00 in0.0 mm 0.00 in0.0 mm 0.00 in0.0 mm
07:40 PM 67.3°F19.6°C 57.6°F14.2°C 71% Calm Calm -- 30.19 in1022.4 mb 0.00 in0.0 mm 0.00 in0.0 mm 0.00 in0.0 mm
08:10 PM 66.4°F19.1°C 57.1°F13.9°C 72% Calm Calm -- 30.18 in1022.0 mb 0.00 in0.0 mm 0.00 in0.0 mm 0.00 in0.0 mm
08:15 PM 66.2°F19.0°C 56.9°F13.8°C 72% 0.1 mph NE0.2 kmh NE 0.7 mph1.1 kmh 30.19 in1022.4 mb 0.00 in0.0 mm 0.00 in0.0 mm 0.00 in0.0 mm
08:20 PM 66.0°F18.9°C 57.1°F13.9°C 73% 0.1 mph NE0.2 kmh NE 0.7 mph1.1 kmh 30.19 in1022.4 mb 0.00 in0.0 mm 0.00 in0.0 mm 0.00 in0.0 mm
08:25 PM 66.0°F18.9°C 57.1°F13.9°C 73% Calm Calm 0.7 mph1.1 kmh 30.19 in1022.4 mb 0.00 in0.0 mm 0.00 in0.0 mm 0.00 in0.0 mm
08:30 PM 65.8°F18.8°C 56.9°F13.8°C 73% 0.2 mph NNE0.3 kmh NNE 1.6 mph2.6 kmh 30.19 in1022.4 mb 0.00 in0.0 mm 0.00 in0.0 mm 0.00 in0.0 mm
08:35 PM 65.7°F18.7°C 57.1°F13.9°C 74% 0.6 mph NNE1.0 kmh NNE 1.6 mph2.6 kmh 30.18 in1022.0 mb 0.00 in0.0 mm 0.00 in0.0 mm 0.00 in0.0 mm
08:40 PM 65.5°F18.6°C 57.0°F13.9°C 74% 0.4 mph NNE0.6 kmh NNE 1.6 mph2.6 kmh 30.19 in1022.4 mb 0.00 in0.0 mm 0.00 in0.0 mm 0.00 in0.0 mm
08:45 PM 65.3°F18.5°C 56.8°F13.8°C 74% 0.3 mph NNE0.5 kmh NNE 1.3 mph2.1 kmh 30.19 in1022.4 mb 0.00 in0.0 mm 0.00 in0.0 mm 0.00 in0.0 mm
08:50 PM 65.3°F18.5°C 56.8°F13.8°C 74% 0.3 mph NNE0.5 kmh NNE 1.3 mph2.1 kmh 30.18 in1022.0 mb 0.00 in0.0 mm 0.00 in0.0 mm 0.00 in0.0 mm
08:55 PM 65.1°F18.4°C 56.6°F13.7°C 74% Calm Calm -- 30.19 in1022.4 mb 0.00 in0.0 mm 0.00 in0.0 mm 0.00 in0.0 mm
09:00 PM 64.9°F18.3°C 56.5°F13.6°C 74% Calm Calm -- 30.19 in1022.4 mb 0.00 in0.0 mm 0.00 in0.0 mm 0.00 in0.0 mm
09:05 PM 64.9°F18.3°C 56.8°F13.8°C 75% Calm Calm -- 30.19 in1022.4 mb 0.00 in0.0 mm 0.00 in0.0 mm 0.00 in0.0 mm
09:10 PM 64.8°F18.2°C 56.6°F13.7°C 75% Calm Calm -- 30.19 in1022.4 mb 0.00 in0.0 mm 0.00 in0.0 mm 0.00 in0.0 mm
09:15 PM 64.6°F18.1°C 56.5°F13.6°C 75% Calm Calm -- 30.18 in1022.0 mb 0.00 in0.0 mm 0.00 in0.0 mm 0.00 in0.0 mm
09:20 PM 64.6°F18.1°C 56.8°F13.8°C 76% Calm Calm -- 30.18 in1022.0 mb 0.00 in0.0 mm 0.00 in0.0 mm 0.00 in0.0 mm
09:25 PM 64.4°F18.0°C 56.7°F13.7°C 76% Calm Calm -- 30.18 in1022.0 mb 0.00 in0.0 mm 0.00 in0.0 mm 0.00 in0.0 mm
09:30 PM 64.2°F17.9°C 56.5°F13.6°C 76% Calm Calm -- 30.18 in1022.0 mb 0.00 in0.0 mm 0.00 in0.0 mm 0.00 in0.0 mm
09:35 PM 64.2°F17.9°C 56.5°F13.6°C 76% Calm Calm -- 30.18 in1022.0 mb 0.00 in0.0 mm 0.00 in0.0 mm 0.00 in0.0 mm
09:40 PM 64.2°F17.9°C 56.5°F13.6°C 76% Calm Calm -- 30.18 in1022.0 mb 0.00 in0.0 mm 0.00 in0.0 mm 0.00 in0.0 mm
09:45 PM 64.2°F17.9°C 56.9°F13.8°C 77% 0.2 mph NNW0.3 kmh NNW 1.1 mph1.8 kmh 30.18 in1022.0 mb 0.00 in0.0 mm 0.00 in0.0 mm 0.00 in0.0 mm
09:50 PM 64.2°F17.9°C 56.9°F13.8°C 77% 0.7 mph NW1.1 kmh NW 1.6 mph2.6 kmh 30.18 in1022.0 mb 0.00 in0.0 mm 0.00 in0.0 mm 0.00 in0.0 mm
09:55 PM 64.2°F17.9°C 56.9°F13.8°C 77% 0.5 mph NW0.8 kmh NW 1.6 mph2.6 kmh 30.18 in1022.0 mb 0.00 in0.0 mm 0.00 in0.0 mm 0.00 in0.0 mm
10:00 PM 64.2°F17.9°C 56.9°F13.8°C 77% 0.1 mph NNW0.2 kmh NNW 0.9 mph1.4 kmh 30.18 in1022.0 mb 0.00 in0.0 mm 0.00 in0.0 mm 0.00 in0.0 mm
10:05 PM 64.2°F17.9°C 56.9°F13.8°C 77% Calm Calm -- 30.18 in1022.0 mb 0.00 in0.0 mm 0.00 in0.0 mm 0.00 in0.0 mm
10:10 PM 64.2°F17.9°C 56.9°F13.8°C 77% Calm Calm -- 30.18 in1022.0 mb 0.00 in0.0 mm 0.00 in0.0 mm 0.00 in0.0 mm
10:15 PM 64.2°F17.9°C 56.9°F13.8°C 77% Calm Calm -- 30.18 in1022.0 mb 0.00 in0.0 mm 0.00 in0.0 mm 0.00 in0.0 mm
10:20 PM 64.0°F17.8°C 56.7°F13.7°C 77% Calm Calm -- 30.18 in1022.0 mb 0.00 in0.0 mm 0.00 in0.0 mm 0.00 in0.0 mm
10:25 PM 64.0°F17.8°C 56.7°F13.7°C 77% 0.2 mph NNE0.3 kmh NNE 0.9 mph1.4 kmh 30.17 in1021.7 mb 0.00 in0.0 mm 0.00 in0.0 mm 0.00 in0.0 mm
10:30 PM 64.0°F17.8°C 56.7°F13.7°C 77% 0.4 mph NNE0.6 kmh NNE 0.9 mph1.4 kmh 30.17 in1021.7 mb 0.00 in0.0 mm 0.00 in0.0 mm 0.00 in0.0 mm
10:35 PM 64.0°F17.8°C 57.0°F13.9°C 78% 0.5 mph NNE0.8 kmh NNE 0.9 mph1.4 kmh 30.17 in1021.7 mb 0.00 in0.0 mm 0.00 in0.0 mm 0.00 in0.0 mm
10:40 PM 63.7°F17.6°C 56.7°F13.7°C 78% 0.9 mph NNE1.4 kmh NNE 1.3 mph2.1 kmh 30.17 in1021.7 mb 0.00 in0.0 mm 0.00 in0.0 mm 0.00 in0.0 mm
10:45 PM 63.7°F17.6°C 56.7°F13.7°C 78% 1.1 mph NNE1.8 kmh NNE 1.3 mph2.1 kmh 30.17 in1021.7 mb 0.00 in0.0 mm 0.00 in0.0 mm 0.00 in0.0 mm
10:50 PM 63.5°F17.5°C 56.5°F13.6°C 78% 0.7 mph NNE1.1 kmh NNE 1.1 mph1.8 kmh 30.17 in1021.7 mb 0.00 in0.0 mm 0.00 in0.0 mm 0.00 in0.0 mm
10:55 PM 63.5°F17.5°C 56.5°F13.6°C 78% 0.2 mph NNE0.3 kmh NNE 0.9 mph1.4 kmh 30.17 in1021.7 mb 0.00 in0.0 mm 0.00 in0.0 mm 0.00 in0.0 mm
11:00 PM 63.3°F17.4°C 56.3°F13.5°C 78% Calm Calm -- 30.17 in1021.7 mb 0.00 in0.0 mm 0.00 in0.0 mm 0.00 in0.0 mm
11:05 PM 63.3°F17.4°C 56.3°F13.5°C 78% Calm Calm -- 30.17 in1021.7 mb 0.00 in0.0 mm 0.00 in0.0 mm 0.00 in0.0 mm
11:10 PM 63.1°F17.3°C 56.2°F13.4°C 78% Calm Calm -- 30.17 in1021.7 mb 0.00 in0.0 mm 0.00 in0.0 mm 0.00 in0.0 mm
11:15 PM 63.1°F17.3°C 56.2°F13.4°C 78% Calm Calm 0.9 mph1.4 kmh 30.17 in1021.7 mb 0.00 in0.0 mm 0.00 in0.0 mm 0.00 in0.0 mm
11:20 PM 63.1°F17.3°C 56.2°F13.4°C 78% 0.2 mph NNE0.3 kmh NNE 0.9 mph1.4 kmh 30.17 in1021.7 mb 0.00 in0.0 mm 0.00 in0.0 mm 0.00 in0.0 mm
11:25 PM 63.1°F17.3°C 56.5°F13.6°C 79% 0.2 mph NNE0.3 kmh NNE 0.9 mph1.4 kmh 30.17 in1021.7 mb 0.00 in0.0 mm 0.00 in0.0 mm 0.00 in0.0 mm
11:30 PM 63.0°F17.2°C 56.3°F13.5°C 79% Calm Calm -- 30.17 in1021.7 mb 0.00 in0.0 mm 0.00 in0.0 mm 0.00 in0.0 mm
11:35 PM 63.0°F17.2°C 56.3°F13.5°C 79% Calm Calm -- 30.17 in1021.7 mb 0.00 in0.0 mm 0.00 in0.0 mm 0.00 in0.0 mm
11:40 PM 63.0°F17.2°C 56.3°F13.5°C 79% Calm Calm -- 30.16 in1021.3 mb 0.00 in0.0 mm 0.00 in0.0 mm 0.00 in0.0 mm
11:45 PM 62.6°F17.0°C 56.0°F13.3°C 79% 0.2 mph N0.3 kmh N 1.1 mph1.8 kmh 30.16 in1021.3 mb 0.00 in0.0 mm 0.00 in0.0 mm 0.00 in0.0 mm
11:50 PM 62.6°F17.0°C 56.0°F13.3°C 79% 0.2 mph N0.3 kmh N 1.1 mph1.8 kmh 30.16 in1021.3 mb 0.00 in0.0 mm 0.00 in0.0 mm 0.00 in0.0 mm
11:55 PM 62.4°F16.9°C 56.2°F13.4°C 80% Calm Calm -- 30.16 in1021.3 mb 0.00 in0.0 mm 0.00 in0.0 mm 0.00 in0.0 mm